Flight Track Log - Related Links

Times and Time Zones

All times are in EDT time to prevent confusion due to time zone crossing. See the SWA1668 flight status page for this flight to view local times or setup timezone preferences in your user account.

Time Position Orientation Groundspeed Altitude Reporting Facility
EDT Latitude Longitude Course Direction KTS MPH feet Rate Location/Type
Wed 02:00:07 PM 39.8500 -104.7333 252° West 162 186 6,400  Level Denver TRACON
Wed 02:01:07 PM 39.8333 -104.8000 252° West 239 275 7,900 1,835 Climbing Denver TRACON
Wed 02:02:08 PM 39.7914 -104.8981 241° Southwest 289 333 10,100 2,634 Climbing Denver Center
Wed 02:03:10 PM 39.7075 -104.9256 194° South 325 374 13,300 3,194 Climbing Denver Center
Wed 02:04:12 PM 39.6086 -104.8994 169° South 342 394 16,700 3,194 Climbing Denver Center
Wed 02:05:14 PM 39.5100 -104.8711 168° South 360 414 19,900 2,952 Climbing Denver Center
Wed 02:06:16 PM 39.3997 -104.8397 168° South 375 432 22,800 2,098 Climbing Denver Center
Wed 02:07:17 PM 39.2944 -104.8092 167° South 385 443 24,200 1,951 Climbing Denver Center
Wed 02:08:19 PM 39.1764 -104.7742 167° South 407 468 26,800 2,177 Climbing Denver Center
Wed 02:09:21 PM 39.0708 -104.7469 169° South 407 468 28,700 1,984 Climbing Denver Center
Wed 02:10:23 PM 38.9461 -104.6964 163° South 419 482 30,900 1,853 Climbing Denver Center
Wed 02:11:37 PM 38.8406 -104.6519 162° South 417 480 32,900 1,191 Climbing Denver Center
Wed 02:12:39 PM 38.7025 -104.5942 162° South 408 470 33,600 532 Climbing Denver Center
Wed 02:13:41 PM 38.5903 -104.5819 175° South 423 487 34,000 194 Climbing Denver Center
Wed 02:14:43 PM 38.4597 -104.5639 174° South 423 487 34,000  Level Denver Center
Wed 02:15:45 PM 38.3717 -104.4750 142° Southeast 418 481 34,000  Level Denver Center
Wed 02:16:47 PM 38.2631 -104.3794 145° Southeast 423 487 34,000 48 Level Denver Center
Wed 02:17:49 PM 38.1731 -104.2956 144° Southeast 419 482 34,100 774 Climbing Denver Center
Wed 02:18:51 PM 38.0642 -104.1942 144° Southeast 430 495 35,600 1,561 Climbing Denver Center
Wed 02:19:52 PM 37.9697 -104.1072 144° Southeast 436 502 37,300 1,415 Climbing Denver Center
Wed 02:20:54 PM 37.8756 -104.0222 145° Southeast 433 498 38,500 1,016 Climbing Denver Center
Wed 02:21:56 PM 37.7636 -103.9200 144° Southeast 438 504 39,400 919 Climbing Denver Center
Wed 02:22:58 PM 37.6661 -103.8297 144° Southeast 444 511 40,400 774 Climbing Denver Center
Wed 02:24:00 PM 37.5675 -103.7406 144° Southeast 448 516 41,000 293 Climbing Denver Center
Wed 02:25:01 PM 37.4531 -103.6358 144° Southeast 450 518 41,000  Level Denver Center
Wed 02:26:03 PM 37.3547 -103.5472 144° Southeast 452 520 41,000  Level Denver Center
Wed 02:26:18 PM 37.3211 -103.5200 147° Southeast 452 520 41,000  Level Albuquerque Center
Wed 02:27:19 PM 37.2242 -103.4297 143° Southeast 451 519 41,000  Level Albuquerque Center
Wed 02:28:21 PM 37.1078 -103.3278 145° Southeast 455 524 41,000  Level Albuquerque Center
Wed 02:29:23 PM 37.0094 -103.2394 144° Southeast 454 522 41,000 -146 Level Albuquerque Center
Wed 02:30:24 PM 36.9106 -103.1517 145° Southeast 453 521 40,700 -1,415 Descending Albuquerque Center
Wed 02:31:26 PM 36.7950 -103.0497 145° Southeast 455 524 38,100 -2,585 Descending Albuquerque Center
Wed 02:32:27 PM 36.6992 -102.9642 144° Southeast 447 514 35,400 -2,878 Descending Albuquerque Center
Wed 02:33:29 PM 36.5914 -102.8683 144° Southeast 444 511 32,200 -3,097 Descending Albuquerque Center
Wed 02:34:31 PM 36.4789 -102.7700 145° Southeast 453 521 29,000 -1,561 Descending Albuquerque Center
Wed 02:35:32 PM 36.3858 -102.6881 145° Southeast 417 480 29,000 -585 Level Albuquerque Center
Wed 02:36:34 PM 36.2958 -102.6097 145° Southeast 397 457 27,800 -1,790 Descending Albuquerque Center
Wed 02:37:36 PM 36.2025 -102.5283 145° Southeast 405 466 25,300 -2,488 Descending Albuquerque Center
Wed 02:38:37 PM 36.1106 -102.4481 145° Southeast 406 467 22,700 -2,537 Descending Albuquerque Center
Wed 02:39:39 PM 36.0194 -102.3694 145° Southeast 401 461 20,100 -2,565 Descending Albuquerque Center
Wed 02:40:41 PM 35.9325 -102.2933 145° Southeast 388 447 17,400 -2,829 Descending Albuquerque Center
Wed 02:41:42 PM 35.8292 -102.2053 145° Southeast 379 436 14,300 -2,683 Descending Albuquerque Center
Wed 02:42:44 PM 35.7475 -102.1350 145° Southeast 365 420 11,900 -1,839 Descending Albuquerque Center
Wed 02:43:46 PM 35.6683 -102.0667 145° Southeast 354 407 10,500 -1,210 Descending Albuquerque Center
Wed 02:44:48 PM 35.6008 -102.0081 145° Southeast 310 357 9,400 -1,073 Descending Albuquerque Center
Wed 02:45:49 PM 35.5361 -101.9547 146° Southeast 287 330 8,300 -1,317 Descending Albuquerque Center
Wed 02:46:51 PM 35.4744 -101.9022 145° Southeast 277 319 6,700 -1,113 Descending Albuquerque Center
Wed 02:47:53 PM 35.4136 -101.8511 146° Southeast 272 313 6,000 -484 Descending Albuquerque Center
Wed 02:48:55 PM 35.3531 -101.7739 134° Southeast 269 310 5,700 -387 Descending Albuquerque Center
Wed 02:49:57 PM 35.3106 -101.7108 130° Southeast 254 292 5,200 -488 Descending Albuquerque Center
Wed 02:50:58 PM 35.2767 -101.6669 133° Southeast 207 238 4,700 -537 Descending Albuquerque Center
Wed 02:52:00 PM 35.2444 -101.6828 202° Southwest 161 185 4,100 -484 Descending Albuquerque Center
Wed 02:53:02 PM 35.2194 -101.7153 227° Southwest 145 167 3,700 -387 Descending Albuquerque Center

Login

Don't have an account? Register now (free) for customized features, flight alerts, and more!